createdAt,value
2023-03-24T00:00:17.460Z,10.67
2023-03-24T00:02:52.691Z,10.65
2023-03-24T00:05:21.956Z,10.63
2023-03-24T00:07:54.884Z,10.61
2023-03-24T00:10:23.547Z,10.57
2023-03-24T00:12:52.229Z,10.51
2023-03-24T00:15:21.607Z,10.43
2023-03-24T00:17:53.167Z,10.34
2023-03-24T00:20:22.406Z,10.23
2023-03-24T00:22:57.247Z,10.17
2023-03-24T00:25:28.433Z,10.16
2023-03-24T00:27:57.649Z,10.19
2023-03-24T00:30:26.335Z,10.24
2023-03-24T00:32:54.848Z,10.27
2023-03-24T00:35:24.094Z,10.28
2023-03-24T00:37:52.392Z,10.31
2023-03-24T00:40:21.436Z,10.36
2023-03-24T00:42:50.261Z,10.40
2023-03-24T00:45:20.114Z,10.39
2023-03-24T00:47:54.161Z,10.35
2023-03-24T00:50:27.151Z,10.32
2023-03-24T00:52:58.482Z,10.25
2023-03-24T00:55:28.979Z,10.18
2023-03-24T00:58:01.203Z,10.11
2023-03-24T01:00:30.541Z,10.03
2023-03-24T01:02:59.095Z,9.97
2023-03-24T01:05:28.608Z,9.90
2023-03-24T01:07:58.056Z,9.83
2023-03-24T01:10:33.018Z,9.75
2023-03-24T01:13:01.667Z,9.67
2023-03-24T01:15:31.385Z,9.60
2023-03-24T01:18:02.444Z,9.52
2023-03-24T01:20:34.238Z,9.47
2023-03-24T01:23:02.917Z,9.43
2023-03-24T01:25:31.177Z,9.41
2023-03-24T01:27:59.820Z,9.41
2023-03-24T01:30:28.325Z,9.43
2023-03-24T01:32:57.412Z,9.47
2023-03-24T01:35:29.007Z,9.51
2023-03-24T01:37:58.576Z,9.54
2023-03-24T01:40:28.816Z,9.60
2023-03-24T01:42:57.369Z,9.70
2023-03-24T01:45:44.050Z,9.82
2023-03-24T01:48:16.708Z,9.98
2023-03-24T01:50:58.020Z,10.14
2023-03-24T01:53:26.289Z,10.32
2023-03-24T01:55:56.283Z,10.43
2023-03-24T01:58:29.888Z,10.50
2023-03-24T02:01:15.057Z,10.48
2023-03-24T02:04:05.119Z,10.40
2023-03-24T02:06:33.890Z,10.31
2023-03-24T02:09:03.951Z,10.22
2023-03-24T02:11:34.640Z,10.12
2023-03-24T02:14:12.662Z,10.04
2023-03-24T02:16:46.599Z,9.95
2023-03-24T02:19:38.545Z,9.85
2023-03-24T02:22:26.863Z,9.74
2023-03-24T02:24:55.460Z,9.64
2023-03-24T02:27:30.620Z,9.56
2023-03-24T02:30:04.505Z,9.49
2023-03-24T02:32:33.231Z,9.42
2023-03-24T02:35:10.790Z,9.37
2023-03-24T02:37:57.958Z,9.33
2023-03-24T02:40:37.897Z,9.34
2023-03-24T02:43:15.693Z,9.33
2023-03-24T02:45:47.138Z,9.28
2023-03-24T02:48:24.738Z,9.23
2023-03-24T02:51:04.092Z,9.18
2023-03-24T02:53:41.222Z,9.14
2023-03-24T02:56:32.040Z,9.08
2023-03-24T02:59:06.767Z,9.01
2023-03-24T03:01:41.614Z,8.95
2023-03-24T03:04:50.262Z,8.88
2023-03-24T03:07:22.071Z,8.85
2023-03-24T03:09:59.072Z,8.82
2023-03-24T03:12:27.691Z,8.79
2023-03-24T03:15:00.547Z,8.78
2023-03-24T03:17:31.084Z,8.81
2023-03-24T03:20:05.539Z,8.85
2023-03-24T03:22:43.292Z,8.90
2023-03-24T03:25:12.298Z,8.97
2023-03-24T03:27:43.476Z,9.05
2023-03-24T03:30:14.261Z,9.12
2023-03-24T03:32:54.478Z,9.20
2023-03-24T03:35:29.856Z,9.28
2023-03-24T03:38:00.428Z,9.35
2023-03-24T03:40:33.396Z,9.38
2023-03-24T03:43:07.740Z,9.33
2023-03-24T03:45:35.979Z,9.22
2023-03-24T03:48:05.261Z,9.12
2023-03-24T03:50:33.684Z,9.06
2023-03-24T03:53:06.691Z,9.03
2023-03-24T03:55:35.653Z,9.01
2023-03-24T03:58:06.948Z,9.02
2023-03-24T04:00:39.897Z,9.07
2023-03-24T04:03:30.900Z,9.17
2023-03-24T04:06:04.312Z,9.32
2023-03-24T04:09:10.059Z,9.46
2023-03-24T04:11:57.148Z,9.64
2023-03-24T04:14:57.769Z,9.81
2023-03-24T04:17:58.597Z,9.95
2023-03-24T04:21:33.834Z,10.05
2023-03-24T04:24:12.331Z,10.14
2023-03-24T04:26:46.750Z,10.25
2023-03-24T04:29:27.984Z,10.36
2023-03-24T04:31:59.372Z,10.44
2023-03-24T04:34:36.263Z,10.47
2023-03-24T04:37:20.624Z,10.49
2023-03-24T04:39:58.922Z,10.56
2023-03-24T04:42:32.675Z,10.64
2023-03-24T04:45:00.895Z,10.70
2023-03-24T04:47:51.183Z,10.74
2023-03-24T04:50:51.612Z,10.85
2023-03-24T04:53:22.152Z,11.02
2023-03-24T04:55:50.556Z,11.29
2023-03-24T04:58:29.731Z,12.00
2023-03-24T05:00:58.897Z,12.99
2023-03-24T05:03:28.262Z,13.69
2023-03-24T05:06:00.396Z,14.32
2023-03-24T05:08:29.334Z,14.98
2023-03-24T05:10:57.782Z,15.57
2023-03-24T05:13:26.440Z,15.89
2023-03-24T05:15:59.589Z,16.23
2023-03-24T05:18:43.363Z,16.49
2023-03-24T05:21:13.310Z,16.75
2023-03-24T05:23:41.933Z,16.97
2023-03-24T05:26:13.260Z,16.56
2023-03-24T05:28:53.739Z,15.75
2023-03-24T05:31:21.896Z,15.10
2023-03-24T05:33:56.757Z,15.02
2023-03-24T05:36:25.796Z,15.17
2023-03-24T05:38:59.979Z,14.98
2023-03-24T05:41:38.728Z,14.62
2023-03-24T05:44:07.028Z,14.51
2023-03-24T05:46:35.678Z,14.66
2023-03-24T05:49:04.930Z,14.98
2023-03-24T05:51:36.707Z,15.39
2023-03-24T05:54:07.594Z,16.01
2023-03-24T05:56:44.006Z,16.89
2023-03-24T05:59:33.585Z,17.79
2023-03-24T06:02:01.906Z,18.30
2023-03-24T06:04:46.340Z,18.47
2023-03-24T06:07:26.710Z,18.11
2023-03-24T06:10:03.277Z,17.63
2023-03-24T06:12:38.929Z,17.25
2023-03-24T06:15:07.985Z,16.91
2023-03-24T06:17:43.382Z,16.65
2023-03-24T06:20:19.794Z,16.51
2023-03-24T06:23:04.673Z,16.38
2023-03-24T06:25:44.973Z,16.31
2023-03-24T06:28:20.857Z,16.45
2023-03-24T06:30:49.782Z,16.68
2023-03-24T06:33:26.057Z,16.91
2023-03-24T06:35:55.023Z,17.18
2023-03-24T06:38:23.784Z,17.37
2023-03-24T06:40:52.539Z,17.53
2023-03-24T06:43:20.956Z,17.78
2023-03-24T06:45:53.003Z,18.07
2023-03-24T06:48:26.817Z,18.49
2023-03-24T06:51:04.712Z,19.35
2023-03-24T06:53:35.150Z,20.32
2023-03-24T06:56:05.094Z,21.13
2023-03-24T06:58:40.695Z,21.89
2023-03-24T07:01:11.680Z,22.21
2023-03-24T07:03:57.907Z,22.12
2023-03-24T07:06:40.392Z,22.22
2023-03-24T07:09:15.501Z,22.50
2023-03-24T07:11:45.719Z,22.96
2023-03-24T07:14:14.209Z,23.60
2023-03-24T07:16:44.686Z,24.39
2023-03-24T07:19:27.356Z,25.04
2023-03-24T07:22:24.333Z,25.33
2023-03-24T07:25:25.883Z,25.06
2023-03-24T07:28:02.820Z,24.52
2023-03-24T07:30:41.022Z,24.05
2023-03-24T07:33:13.017Z,23.65
2023-03-24T07:35:43.032Z,23.35
2023-03-24T07:38:15.891Z,23.38
2023-03-24T07:40:44.841Z,23.67
2023-03-24T07:43:15.832Z,23.82
2023-03-24T07:46:22.638Z,23.59
2023-03-24T07:48:53.046Z,23.40
2023-03-24T07:51:21.384Z,23.33
2023-03-24T07:54:03.094Z,23.48
2023-03-24T07:56:38.680Z,23.56
2023-03-24T07:59:07.942Z,23.44
2023-03-24T08:02:18.516Z,23.15
2023-03-24T08:05:00.748Z,22.82
2023-03-24T08:07:53.879Z,22.46
2023-03-24T08:10:23.461Z,22.37
2023-03-24T08:12:55.061Z,22.57
2023-03-24T08:15:23.442Z,23.04
2023-03-24T08:17:56.891Z,23.79
2023-03-24T08:20:27.427Z,24.25
2023-03-24T08:22:56.062Z,24.36
2023-03-24T08:25:24.961Z,24.24
2023-03-24T08:27:53.200Z,24.10
2023-03-24T08:30:26.169Z,24.07
2023-03-24T08:32:56.123Z,23.98
2023-03-24T08:35:25.398Z,23.80
2023-03-24T08:37:53.983Z,23.58
2023-03-24T08:40:27.012Z,23.30
2023-03-24T08:42:56.266Z,23.20
2023-03-24T08:45:27.614Z,23.30
2023-03-24T08:47:56.157Z,23.24
2023-03-24T08:50:26.079Z,23.13
2023-03-24T08:52:56.328Z,22.95
2023-03-24T08:55:25.021Z,22.64
2023-03-24T08:57:53.628Z,22.41
2023-03-24T09:00:22.845Z,22.25
2023-03-24T09:03:07.750Z,22.21
2023-03-24T09:05:54.273Z,22.22
2023-03-24T09:08:23.174Z,22.24
2023-03-24T09:10:51.569Z,22.17
2023-03-24T09:13:20.603Z,22.01
2023-03-24T09:15:50.615Z,21.81
2023-03-24T09:18:19.363Z,21.74
2023-03-24T09:20:48.015Z,21.70
2023-03-24T09:23:16.939Z,21.61
2023-03-24T09:25:50.433Z,21.39
2023-03-24T09:28:18.927Z,21.34
2023-03-24T09:30:47.080Z,21.36
2023-03-24T09:33:16.147Z,21.36
2023-03-24T09:35:44.497Z,21.44
2023-03-24T09:38:16.243Z,21.63
2023-03-24T09:40:44.349Z,21.99
2023-03-24T09:43:31.989Z,22.35
2023-03-24T09:46:02.359Z,22.41
2023-03-24T09:48:34.507Z,22.41
2023-03-24T09:51:07.694Z,22.35
2023-03-24T09:53:51.499Z,22.29
2023-03-24T09:56:20.925Z,22.13
2023-03-24T09:59:07.913Z,22.05
2023-03-24T10:01:36.667Z,22.00
2023-03-24T10:04:05.106Z,21.99
2023-03-24T10:06:42.746Z,21.94
2023-03-24T10:09:23.841Z,22.01
2023-03-24T10:12:05.493Z,22.14
2023-03-24T10:14:54.634Z,22.21
2023-03-24T10:17:23.027Z,22.24
2023-03-24T10:20:03.189Z,22.24
2023-03-24T10:22:35.643Z,22.20
2023-03-24T10:25:07.140Z,21.99
2023-03-24T10:27:57.209Z,21.81
2023-03-24T10:30:26.963Z,21.67
2023-03-24T10:32:58.652Z,21.65
2023-03-24T10:35:36.995Z,21.82
2023-03-24T10:38:18.653Z,22.00
2023-03-24T10:40:47.941Z,21.95
2023-03-24T10:43:17.450Z,21.89
2023-03-24T10:45:47.792Z,22.00
2023-03-24T10:48:33.549Z,22.07
2023-03-24T10:51:02.993Z,22.25
2023-03-24T10:53:31.880Z,22.47
2023-03-24T10:56:00.213Z,22.44
2023-03-24T10:58:30.934Z,22.27
2023-03-24T11:00:59.176Z,22.26
2023-03-24T11:03:38.044Z,22.32
2023-03-24T11:06:07.072Z,22.45
2023-03-24T11:08:37.083Z,22.56
2023-03-24T11:11:26.652Z,22.53
2023-03-24T11:13:59.394Z,22.30
2023-03-24T11:16:37.379Z,22.13
2023-03-24T11:19:07.453Z,21.92
2023-03-24T11:21:36.506Z,21.66
2023-03-24T11:24:09.961Z,21.35
2023-03-24T11:26:39.597Z,21.13
2023-03-24T11:29:20.136Z,20.98
2023-03-24T11:31:54.913Z,20.82
2023-03-24T11:34:26.528Z,20.62
2023-03-24T11:36:55.968Z,20.44
2023-03-24T11:39:27.886Z,20.36
2023-03-24T11:42:02.612Z,20.34
2023-03-24T11:44:51.607Z,20.36
2023-03-24T11:47:24.570Z,20.45
2023-03-24T11:49:57.893Z,20.48
2023-03-24T11:52:31.620Z,20.48
2023-03-24T11:55:00.142Z,20.57
2023-03-24T11:57:35.712Z,20.62
2023-03-24T12:00:09.127Z,20.61
2023-03-24T12:03:02.485Z,20.58
2023-03-24T12:05:37.239Z,20.59
2023-03-24T12:08:27.707Z,20.71
2023-03-24T12:10:55.906Z,20.81
2023-03-24T12:13:32.748Z,20.94
2023-03-24T12:16:07.873Z,21.10
2023-03-24T12:18:42.954Z,21.16
2023-03-24T12:21:27.204Z,21.13
2023-03-24T12:23:58.707Z,20.98
2023-03-24T12:26:27.934Z,20.80
2023-03-24T12:29:15.536Z,20.70
2023-03-24T12:31:46.661Z,20.57
2023-03-24T12:34:27.463Z,20.38
2023-03-24T12:37:22.309Z,20.21
2023-03-24T12:39:58.067Z,20.07
2023-03-24T12:42:26.175Z,19.96
2023-03-24T12:44:57.450Z,19.81
2023-03-24T12:47:25.602Z,19.66
2023-03-24T12:49:57.601Z,19.57
2023-03-24T12:52:31.329Z,19.52
2023-03-24T12:55:05.248Z,19.54
2023-03-24T12:57:38.559Z,19.63
2023-03-24T13:00:12.652Z,19.68
2023-03-24T13:02:48.931Z,19.69
2023-03-24T13:05:33.254Z,19.64
2023-03-24T13:08:13.922Z,19.51
2023-03-24T13:10:42.834Z,19.39
2023-03-24T13:13:13.638Z,19.23
2023-03-24T13:15:42.209Z,19.08
2023-03-24T13:18:11.045Z,19.03
2023-03-24T13:20:49.981Z,18.93
2023-03-24T13:23:18.167Z,18.78
2023-03-24T13:25:50.443Z,18.72
2023-03-24T13:28:21.521Z,18.72
2023-03-24T13:30:51.714Z,18.73
2023-03-24T13:33:28.220Z,18.71
2023-03-24T13:36:41.061Z,18.63
2023-03-24T13:39:15.998Z,18.54
2023-03-24T13:41:47.615Z,18.49
2023-03-24T13:44:29.111Z,18.45
2023-03-24T13:47:16.166Z,18.42
2023-03-24T13:49:53.295Z,18.41
2023-03-24T13:52:23.208Z,18.38
2023-03-24T13:54:58.314Z,18.36
2023-03-24T13:57:27.091Z,18.36
2023-03-24T13:59:59.957Z,18.33
2023-03-24T14:02:31.879Z,18.29
2023-03-24T14:05:06.921Z,18.26
2023-03-24T14:07:41.232Z,18.24
2023-03-24T14:10:20.992Z,18.21
2023-03-24T14:13:02.082Z,18.18
2023-03-24T14:15:35.701Z,18.14
2023-03-24T14:18:16.604Z,18.10
2023-03-24T14:20:56.838Z,18.05
2023-03-24T14:23:39.336Z,17.96
2023-03-24T14:26:28.961Z,17.91
2023-03-24T14:28:57.317Z,17.88
2023-03-24T14:31:33.054Z,17.83
2023-03-24T14:34:22.401Z,17.76
2023-03-24T14:36:57.898Z,17.69
2023-03-24T14:39:46.487Z,17.65
2023-03-24T14:42:33.420Z,17.61
2023-03-24T14:45:24.333Z,17.56
2023-03-24T14:47:57.832Z,17.51
2023-03-24T14:50:26.906Z,17.44
2023-03-24T14:52:55.691Z,17.36
2023-03-24T14:55:24.063Z,17.30
2023-03-24T14:57:53.583Z,17.22
2023-03-24T15:00:36.251Z,17.15
2023-03-24T15:03:11.711Z,17.08
2023-03-24T15:05:39.973Z,17.01
2023-03-24T15:08:15.878Z,16.95
2023-03-24T15:10:50.786Z,16.87
2023-03-24T15:13:26.769Z,16.80
2023-03-24T15:16:07.217Z,16.71
2023-03-24T15:18:38.844Z,16.64
2023-03-24T15:21:15.773Z,16.56
2023-03-24T15:23:47.696Z,16.48
2023-03-24T15:26:16.194Z,16.40
2023-03-24T15:28:44.711Z,16.33
2023-03-24T15:31:12.891Z,16.25
2023-03-24T15:33:41.724Z,16.17
2023-03-24T15:36:16.863Z,16.09
2023-03-24T15:38:46.961Z,16.01
2023-03-24T15:41:16.352Z,15.93
2023-03-24T15:43:45.239Z,15.86
2023-03-24T15:46:24.044Z,15.78
2023-03-24T15:48:52.620Z,15.70
2023-03-24T15:51:21.050Z,15.61
2023-03-24T15:53:55.452Z,15.53
2023-03-24T15:56:27.608Z,15.44
2023-03-24T15:58:57.730Z,15.35
2023-03-24T16:01:39.469Z,15.28
2023-03-24T16:04:17.843Z,15.22
2023-03-24T16:06:49.446Z,15.14
2023-03-24T16:09:21.954Z,15.07
2023-03-24T16:11:50.135Z,15.01
2023-03-24T16:14:27.081Z,14.96
2023-03-24T16:16:58.396Z,14.91
2023-03-24T16:19:26.987Z,14.87
2023-03-24T16:21:55.432Z,14.85
2023-03-24T16:24:24.559Z,14.81
2023-03-24T16:26:52.669Z,14.76
2023-03-24T16:29:25.961Z,14.71
2023-03-24T16:31:56.262Z,14.64
2023-03-24T16:34:24.461Z,14.55
2023-03-24T16:36:53.253Z,14.47
2023-03-24T16:39:22.579Z,14.38
2023-03-24T16:41:54.133Z,14.28
2023-03-24T16:44:23.053Z,14.18
2023-03-24T16:46:52.262Z,14.08
2023-03-24T16:49:22.121Z,13.98
2023-03-24T16:51:53.255Z,13.89
2023-03-24T16:54:25.372Z,13.81
2023-03-24T16:56:54.436Z,13.74
2023-03-24T16:59:22.780Z,13.65
2023-03-24T17:01:53.057Z,13.58
2023-03-24T17:04:22.521Z,13.53
2023-03-24T17:06:53.600Z,13.49
2023-03-24T17:09:23.258Z,13.43
2023-03-24T17:11:55.716Z,13.39
2023-03-24T17:14:24.012Z,13.34
2023-03-24T17:16:53.843Z,13.28
2023-03-24T17:19:22.845Z,13.22
2023-03-24T17:22:03.437Z,13.14
2023-03-24T17:24:36.094Z,13.04
2023-03-24T17:27:04.720Z,12.91
2023-03-24T17:29:33.212Z,12.72
2023-03-24T17:32:01.371Z,12.53
2023-03-24T17:34:47.719Z,12.34
2023-03-24T17:37:17.690Z,12.20
2023-03-24T17:39:46.454Z,12.07
2023-03-24T17:42:14.833Z,11.95
2023-03-24T17:44:44.736Z,11.85
2023-03-24T17:47:12.868Z,11.77
2023-03-24T17:50:01.320Z,11.70
2023-03-24T17:52:39.828Z,11.65
2023-03-24T17:55:08.905Z,11.59
2023-03-24T17:57:37.057Z,11.54
2023-03-24T18:00:08.465Z,11.48
2023-03-24T18:02:40.699Z,11.43
2023-03-24T18:05:09.767Z,11.38
2023-03-24T18:07:40.090Z,11.35
2023-03-24T18:10:08.759Z,11.31
2023-03-24T18:12:38.606Z,11.27
2023-03-24T18:15:07.841Z,11.25
2023-03-24T18:17:36.486Z,11.22
2023-03-24T18:20:11.379Z,11.17
2023-03-24T18:22:41.249Z,11.13
2023-03-24T18:25:10.231Z,11.10
2023-03-24T18:27:45.856Z,11.08
2023-03-24T18:30:14.470Z,11.05
2023-03-24T18:32:43.301Z,11.02
2023-03-24T18:35:16.536Z,10.97
2023-03-24T18:37:45.690Z,10.93
2023-03-24T18:40:16.135Z,10.89
2023-03-24T18:42:45.450Z,10.84
2023-03-24T18:45:17.672Z,10.79
2023-03-24T18:47:46.501Z,10.73
2023-03-24T18:50:14.759Z,10.66
2023-03-24T18:52:42.972Z,10.62
2023-03-24T18:55:11.569Z,10.56
2023-03-24T18:57:40.473Z,10.50
2023-03-24T19:00:11.073Z,10.45
2023-03-24T19:02:39.981Z,10.38
2023-03-24T19:05:09.937Z,10.29
2023-03-24T19:07:38.702Z,10.18
2023-03-24T19:10:07.187Z,10.10
2023-03-24T19:12:35.672Z,10.02
2023-03-24T19:15:07.276Z,9.94
2023-03-24T19:17:36.469Z,9.89
2023-03-24T19:20:09.385Z,9.84
2023-03-24T19:22:40.498Z,9.78
2023-03-24T19:25:09.661Z,9.73
2023-03-24T19:27:45.853Z,9.69
2023-03-24T19:30:14.639Z,9.66
2023-03-24T19:32:43.380Z,9.59
2023-03-24T19:35:12.238Z,9.51
2023-03-24T19:37:41.477Z,9.44
2023-03-24T19:40:11.947Z,9.38
2023-03-24T19:42:42.104Z,9.34
2023-03-24T19:45:14.451Z,9.32
2023-03-24T19:47:46.114Z,9.30
2023-03-24T19:50:15.211Z,9.27
2023-03-24T19:52:48.451Z,9.24
2023-03-24T19:55:16.935Z,9.21
2023-03-24T19:57:45.719Z,9.17
2023-03-24T20:00:14.648Z,9.13
2023-03-24T20:02:43.190Z,9.09
2023-03-24T20:05:11.601Z,9.05
2023-03-24T20:07:39.851Z,9.02
2023-03-24T20:10:08.272Z,8.98
2023-03-24T20:12:38.395Z,8.92
2023-03-24T20:15:06.922Z,8.87
2023-03-24T20:17:37.712Z,8.83
2023-03-24T20:20:07.593Z,8.78
2023-03-24T20:22:36.456Z,8.74
2023-03-24T20:25:05.105Z,8.69
2023-03-24T20:27:34.003Z,8.66
2023-03-24T20:30:03.503Z,8.62
2023-03-24T20:32:37.201Z,8.59
2023-03-24T20:35:05.678Z,8.57
2023-03-24T20:37:35.912Z,8.55
2023-03-24T20:40:09.704Z,8.53
2023-03-24T20:42:39.078Z,8.50
2023-03-24T20:45:07.480Z,8.47
2023-03-24T20:47:39.873Z,8.44
2023-03-24T20:50:08.657Z,8.42
2023-03-24T20:52:39.534Z,8.42
2023-03-24T20:55:28.144Z,8.40
2023-03-24T20:58:02.559Z,8.39
2023-03-24T21:00:30.791Z,8.39
2023-03-24T21:02:59.113Z,8.39
2023-03-24T21:05:28.348Z,8.38
2023-03-24T21:07:56.867Z,8.37
2023-03-24T21:10:25.008Z,8.36
2023-03-24T21:12:56.561Z,8.33
2023-03-24T21:15:27.691Z,8.31
2023-03-24T21:18:01.584Z,8.28
2023-03-24T21:20:30.982Z,8.24
2023-03-24T21:23:03.648Z,8.19
2023-03-24T21:25:37.718Z,8.16
2023-03-24T21:28:06.028Z,8.16
2023-03-24T21:30:34.263Z,8.14
2023-03-24T21:33:02.823Z,8.14
2023-03-24T21:35:31.512Z,8.12
2023-03-24T21:38:01.413Z,8.10
2023-03-24T21:40:30.227Z,8.07
2023-03-24T21:43:05.346Z,8.05
2023-03-24T21:45:33.631Z,8.00
2023-03-24T21:48:05.609Z,7.97
2023-03-24T21:50:39.090Z,7.93
2023-03-24T21:53:15.359Z,7.91
2023-03-24T21:55:54.649Z,7.89
2023-03-24T21:58:22.993Z,7.85
2023-03-24T22:00:52.249Z,7.83
2023-03-24T22:03:21.956Z,7.80
2023-03-24T22:05:50.317Z,7.78
2023-03-24T22:08:22.854Z,7.74
2023-03-24T22:10:54.427Z,7.72
2023-03-24T22:13:29.345Z,7.70
2023-03-24T22:16:02.162Z,7.67
2023-03-24T22:18:31.292Z,7.66
2023-03-24T22:21:03.852Z,7.65
2023-03-24T22:23:38.111Z,7.66
2023-03-24T22:26:07.430Z,7.67
2023-03-24T22:28:40.544Z,7.70
2023-03-24T22:31:09.717Z,7.72
2023-03-24T22:33:38.029Z,7.72
2023-03-24T22:36:08.018Z,7.72
2023-03-24T22:38:36.427Z,7.70
2023-03-24T22:41:11.823Z,7.69
2023-03-24T22:43:41.836Z,7.67
2023-03-24T22:46:10.279Z,7.63
2023-03-24T22:48:40.477Z,7.58
2023-03-24T22:51:09.296Z,7.51
2023-03-24T22:53:38.937Z,7.45
2023-03-24T22:56:09.224Z,7.42
2023-03-24T22:58:37.732Z,7.38
2023-03-24T23:01:07.098Z,7.36
2023-03-24T23:03:35.495Z,7.34
2023-03-24T23:06:04.072Z,7.33
2023-03-24T23:08:33.490Z,7.33
2023-03-24T23:11:01.698Z,7.33
2023-03-24T23:13:36.666Z,7.34
2023-03-24T23:16:12.753Z,7.34
2023-03-24T23:18:41.792Z,7.33
2023-03-24T23:21:11.709Z,7.33
2023-03-24T23:23:40.170Z,7.32
2023-03-24T23:26:26.520Z,7.32
2023-03-24T23:28:56.444Z,7.32
2023-03-24T23:31:25.988Z,7.31
2023-03-24T23:33:55.210Z,7.29
2023-03-24T23:36:26.448Z,7.27
2023-03-24T23:38:54.862Z,7.25
2023-03-24T23:41:24.641Z,7.21
2023-03-24T23:43:53.059Z,7.18
2023-03-24T23:46:22.221Z,7.15
2023-03-24T23:48:51.078Z,7.12
2023-03-24T23:51:24.704Z,7.09
2023-03-24T23:53:52.943Z,7.06
2023-03-24T23:56:21.846Z,7.02
2023-03-24T23:58:50.352Z,6.99
